Weather at Ketchikan Harbor Seaplane Base

Public forecast

Using degrees Fahrenheit for public forecast. Weather courtesy of forecast.io.

Closest aviation weather report (METAR) to Ketchikan Harbor Seaplane Base

Closest report is Ketchikan International Airport, 1.3 nm (2.4 km) WNW. Retrieved 2022/06/29 07:53 UTC (1 hour ago):

PAKT 290753Z AUTO 14003KT 10SM -RA OVC010 13/12 A3001

Closest aviation forecast (TAF) to Ketchikan Harbor Seaplane Base

Closest forecast is Ketchikan International Airport, 1.3 nm (2.4 km) WNW. Retrieved 2022/06/29 06:30 UTC (2 hours ago):

TAF PAKT 290527Z 2906/3006 14005KT P6SM BKN012 FM290900 14008KT 1/2SM FG OVC004 FM291700 14007KT 2SM BR OVC005 FM291800 14009KT P6SM SCT007 AMD LTD TO CLD VIS AND WIND 2906/2915